sensor_id;sensor_type;location;lat;lon;timestamp;pressure;altitude;pressure_sealevel;temperature;humidity
47530;BME280;33272;51.922;7.730;2023-07-13T00:00:29;146983.25;;;18.05;98.36
47530;BME280;33272;51.922;7.730;2023-07-13T00:02:58;146990.91;;;18.09;98.49
47530;BME280;33272;51.922;7.730;2023-07-13T00:05:25;147003.69;;;18.14;98.06
47530;BME280;33272;51.922;7.730;2023-07-13T00:07:53;146989.66;;;18.08;99.30
47530;BME280;33272;51.922;7.730;2023-07-13T00:10:21;146989.66;;;18.08;98.41
47530;BME280;33272;51.922;7.730;2023-07-13T00:12:49;146989.66;;;18.08;97.57
47530;BME280;33272;51.922;7.730;2023-07-13T00:15:24;146979.47;;;18.04;97.13
47530;BME280;33272;51.922;7.730;2023-07-13T00:17:53;146966.69;;;17.99;97.37
47530;BME280;33272;51.922;7.730;2023-07-13T00:20:22;146943.75;;;17.90;98.38
47530;BME280;33272;51.922;7.730;2023-07-13T00:22:50;146925.91;;;17.82;99.09
47530;BME280;33272;51.922;7.730;2023-07-13T00:25:20;146904.19;;;17.74;99.81
47530;BME280;33272;51.922;7.730;2023-07-13T00:27:51;146896.53;;;17.71;99.18
47530;BME280;33272;51.922;7.730;2023-07-13T00:30:18;146885.06;;;17.66;99.12
47530;BME280;33272;51.922;7.730;2023-07-13T00:32:45;146873.59;;;17.61;98.54
47530;BME280;33272;51.922;7.730;2023-07-13T00:35:14;146859.59;;;17.56;98.67
47530;BME280;33272;51.922;7.730;2023-07-13T00:37:42;146844.31;;;17.50;99.50
47530;BME280;33272;51.922;7.730;2023-07-13T00:40:12;146822.63;;;17.41;98.88
47530;BME280;33272;51.922;7.730;2023-07-13T00:42:41;146812.44;;;17.37;98.88
47530;BME280;33272;51.922;7.730;2023-07-13T00:48:33;146765.28;;;17.18;100.00
47530;BME280;33272;51.922;7.730;2023-07-13T00:51:01;146743.63;;;17.09;99.97
47530;BME280;33272;51.922;7.730;2023-07-13T00:53:30;146729.59;;;17.04;100.00
47530;BME280;33272;51.922;7.730;2023-07-13T00:55:58;146701.53;;;16.92;100.00
47530;BME280;33272;51.922;7.730;2023-07-13T00:58:28;146687.56;;;16.87;100.00
47530;BME280;33272;51.922;7.730;2023-07-13T01:00:55;146662.06;;;16.77;100.00
47530;BME280;33272;51.922;7.730;2023-07-13T01:03:22;146639.06;;;16.67;100.00
47530;BME280;33272;51.922;7.730;2023-07-13T01:05:50;146622.53;;;16.61;100.00
47530;BME280;33272;51.922;7.730;2023-07-13T01:08:17;146599.59;;;16.52;100.00
47530;BME280;33272;51.922;7.730;2023-07-13T01:10:52;146574.13;;;16.41;100.00
47530;BME280;33272;51.922;7.730;2023-07-13T01:13:20;146556.31;;;16.34;100.00
47530;BME280;33272;51.922;7.730;2023-07-13T01:15:49;146535.94;;;16.26;100.00
47530;BME280;33272;51.922;7.730;2023-07-13T01:18:21;146513.00;;;16.17;100.00
47530;BME280;33272;51.922;7.730;2023-07-13T01:20:58;146491.41;;;16.08;100.00
47530;BME280;33272;51.922;7.730;2023-07-13T01:23:26;146471.00;;;16.00;100.00
47530;BME280;33272;51.922;7.730;2023-07-13T01:25:54;146449.34;;;15.91;100.00
47530;BME280;33272;51.922;7.730;2023-07-13T01:28:22;146431.56;;;15.84;100.00
47530;BME280;33272;51.922;7.730;2023-07-13T01:30:54;146413.75;;;15.77;100.00
47530;BME280;33272;51.922;7.730;2023-07-13T01:33:21;146397.22;;;15.70;100.00
47530;BME280;33272;51.922;7.730;2023-07-13T01:35:48;146380.63;;;15.64;100.00
47530;BME280;33272;51.922;7.730;2023-07-13T01:38:20;146362.75;;;15.57;100.00
47530;BME280;33272;51.922;7.730;2023-07-13T01:40:47;146344.97;;;15.49;100.00
47530;BME280;33272;51.922;7.730;2023-07-13T01:43:14;146332.22;;;15.44;100.00
47530;BME280;33272;51.922;7.730;2023-07-13T01:45:41;146320.78;;;15.40;100.00
47530;BME280;33272;51.922;7.730;2023-07-13T01:48:09;146311.88;;;15.36;100.00
47530;BME280;33272;51.922;7.730;2023-07-13T01:50:36;146299.16;;;15.31;100.00
47530;BME280;33272;51.922;7.730;2023-07-13T01:53:04;146290.25;;;15.27;100.00
47530;BME280;33272;51.922;7.730;2023-07-13T01:55:34;146280.09;;;15.23;100.00
47530;BME280;33272;51.922;7.730;2023-07-13T01:58:02;146263.56;;;15.17;100.00
47530;BME280;33272;51.922;7.730;2023-07-13T02:00:29;146253.34;;;15.13;100.00
47530;BME280;33272;51.922;7.730;2023-07-13T02:02:56;146240.66;;;15.07;100.00
47530;BME280;33272;51.922;7.730;2023-07-13T02:05:23;146234.28;;;15.05;100.00
47530;BME280;33272;51.922;7.730;2023-07-13T02:07:50;146230.44;;;15.03;100.00
47530;BME280;33272;51.922;7.730;2023-07-13T02:10:18;146225.38;;;15.01;100.00
47530;BME280;33272;51.922;7.730;2023-07-13T02:12:49;146222.81;;;15.00;100.00
47530;BME280;33272;51.922;7.730;2023-07-13T02:15:17;146219.00;;;14.99;100.00
47530;BME280;33272;51.922;7.730;2023-07-13T02:17:44;146220.28;;;14.99;100.00
47530;BME280;33272;51.922;7.730;2023-07-13T02:20:11;146222.81;;;15.00;100.00
47530;BME280;33272;51.922;7.730;2023-07-13T02:22:38;146224.13;;;15.01;100.00
47530;BME280;33272;51.922;7.730;2023-07-13T02:25:06;146224.13;;;15.01;100.00
47530;BME280;33272;51.922;7.730;2023-07-13T02:27:33;146221.53;;;15.00;100.00
47530;BME280;33272;51.922;7.730;2023-07-13T02:30:02;146221.53;;;15.00;100.00
47530;BME280;33272;51.922;7.730;2023-07-13T02:32:29;146217.75;;;14.98;100.00
47530;BME280;33272;51.922;7.730;2023-07-13T02:34:56;146212.63;;;14.96;100.00
47530;BME280;33272;51.922;7.730;2023-07-13T02:37:23;146210.13;;;14.95;100.00
47530;BME280;33272;51.922;7.730;2023-07-13T02:39:50;146206.28;;;14.94;100.00
47530;BME280;33272;51.922;7.730;2023-07-13T02:42:17;146203.75;;;14.93;100.00
47530;BME280;33272;51.922;7.730;2023-07-13T02:44:44;146202.47;;;14.92;100.00
47530;BME280;33272;51.922;7.730;2023-07-13T02:47:13;146197.38;;;14.90;100.00
47530;BME280;33272;51.922;7.730;2023-07-13T02:49:40;146192.31;;;14.88;100.00
47530;BME280;33272;51.922;7.730;2023-07-13T02:52:07;146182.13;;;14.84;100.00
47530;BME280;33272;51.922;7.730;2023-07-13T02:54:34;146173.22;;;14.80;100.00
47530;BME280;33272;51.922;7.730;2023-07-13T02:57:01;146170.69;;;14.79;100.00
47530;BME280;33272;51.922;7.730;2023-07-13T02:59:28;146163.06;;;14.76;100.00
47530;BME280;33272;51.922;7.730;2023-07-13T03:01:55;146154.16;;;14.73;100.00
47530;BME280;33272;51.922;7.730;2023-07-13T03:04:24;146143.94;;;14.69;100.00
47530;BME280;33272;51.922;7.730;2023-07-13T03:06:51;146132.53;;;14.64;100.00
47530;BME280;33272;51.922;7.730;2023-07-13T03:09:18;146122.38;;;14.60;100.00
47530;BME280;33272;51.922;7.730;2023-07-13T03:11:45;146126.16;;;14.62;100.00
47530;BME280;33272;51.922;7.730;2023-07-13T03:14:12;146131.25;;;14.64;100.00
47530;BME280;33272;51.922;7.730;2023-07-13T03:16:39;146141.44;;;14.68;100.00
47530;BME280;33272;51.922;7.730;2023-07-13T03:19:06;146156.69;;;14.74;100.00
47530;BME280;33272;51.922;7.730;2023-07-13T03:21:35;146177.06;;;14.82;100.00
47530;BME280;33272;51.922;7.730;2023-07-13T03:24:02;146191.00;;;14.88;100.00
47530;BME280;33272;51.922;7.730;2023-07-13T03:26:29;146198.63;;;14.91;100.00
47530;BME280;33272;51.922;7.730;2023-07-13T03:28:56;146208.84;;;14.95;100.00
47530;BME280;33272;51.922;7.730;2023-07-13T03:31:25;146208.84;;;14.95;100.00
47530;BME280;33272;51.922;7.730;2023-07-13T03:33:54;146219.00;;;14.99;100.00
47530;BME280;33272;51.922;7.730;2023-07-13T03:36:23;146227.91;;;15.02;100.00
47530;BME280;33272;51.922;7.730;2023-07-13T03:38:55;146236.81;;;15.06;100.00
47530;BME280;33272;51.922;7.730;2023-07-13T03:41:24;146250.81;;;15.12;100.00
47530;BME280;33272;51.922;7.730;2023-07-13T03:43:51;146262.25;;;15.16;100.00
47530;BME280;33272;51.922;7.730;2023-07-13T03:46:20;146273.72;;;15.21;100.00
47530;BME280;33272;51.922;7.730;2023-07-13T03:48:47;146273.72;;;15.21;100.00
47530;BME280;33272;51.922;7.730;2023-07-13T03:51:16;146276.25;;;15.22;100.00
47530;BME280;33272;51.922;7.730;2023-07-13T03:53:46;146282.63;;;15.24;100.00
47530;BME280;33272;51.922;7.730;2023-07-13T03:56:16;146286.47;;;15.26;100.00
47530;BME280;33272;51.922;7.730;2023-07-13T03:58:45;146286.47;;;15.26;100.00
47530;BME280;33272;51.922;7.730;2023-07-13T04:01:15;146303.00;;;15.33;100.00
47530;BME280;33272;51.922;7.730;2023-07-13T04:03:42;146315.69;;;15.38;100.00
47530;BME280;33272;51.922;7.730;2023-07-13T04:06:16;146330.97;;;15.44;100.00
47530;BME280;33272;51.922;7.730;2023-07-13T04:08:48;146336.06;;;15.46;100.00
47530;BME280;33272;51.922;7.730;2023-07-13T04:11:18;146352.59;;;15.52;100.00
47530;BME280;33272;51.922;7.730;2023-07-13T04:13:47;146360.22;;;15.56;100.00
47530;BME280;33272;51.922;7.730;2023-07-13T04:16:15;146362.75;;;15.57;100.00
47530;BME280;33272;51.922;7.730;2023-07-13T04:18:42;146372.97;;;15.61;100.00
47530;BME280;33272;51.922;7.730;2023-07-13T04:21:09;146378.03;;;15.63;100.00
47530;BME280;33272;51.922;7.730;2023-07-13T04:23:36;146385.69;;;15.66;100.00
47530;BME280;33272;51.922;7.730;2023-07-13T04:26:04;146393.38;;;15.69;100.00
47530;BME280;33272;51.922;7.730;2023-07-13T04:28:33;146401.00;;;15.72;100.00
47530;BME280;33272;51.922;7.730;2023-07-13T04:31:00;146418.81;;;15.79;100.00
47530;BME280;33272;51.922;7.730;2023-07-13T04:33:27;146457.00;;;15.94;100.00
47530;BME280;33272;51.922;7.730;2023-07-13T04:35:56;146492.66;;;16.09;100.00
47530;BME280;33272;51.922;7.730;2023-07-13T04:38:25;146497.72;;;16.11;100.00
47530;BME280;33272;51.922;7.730;2023-07-13T04:40:55;146515.59;;;16.18;100.00
47530;BME280;33272;51.922;7.730;2023-07-13T04:43:23;146519.38;;;16.19;100.00
47530;BME280;33272;51.922;7.730;2023-07-13T04:45:52;146544.84;;;16.30;100.00
47530;BME280;33272;51.922;7.730;2023-07-13T04:48:20;146553.78;;;16.33;100.00
47530;BME280;33272;51.922;7.730;2023-07-13T04:50:48;146567.75;;;16.39;100.00
47530;BME280;33272;51.922;7.730;2023-07-13T04:53:20;146575.41;;;16.42;100.00
47530;BME280;33272;51.922;7.730;2023-07-13T04:55:47;146583.03;;;16.45;100.00
47530;BME280;33272;51.922;7.730;2023-07-13T04:58:15;146598.34;;;16.51;100.00
47530;BME280;33272;51.922;7.730;2023-07-13T05:00:42;146613.63;;;16.57;100.00
47530;BME280;33272;51.922;7.730;2023-07-13T05:03:10;146608.56;;;16.55;100.00
47530;BME280;33272;51.922;7.730;2023-07-13T05:05:37;146600.91;;;16.52;100.00
47530;BME280;33272;51.922;7.730;2023-07-13T05:08:04;146640.38;;;16.68;100.00
47530;BME280;33272;51.922;7.730;2023-07-13T05:10:33;146649.31;;;16.72;100.00
47530;BME280;33272;51.922;7.730;2023-07-13T05:13:00;146668.44;;;16.79;100.00
47530;BME280;33272;51.922;7.730;2023-07-13T05:15:27;146693.91;;;16.89;100.00
47530;BME280;33272;51.922;7.730;2023-07-13T05:17:54;146706.66;;;16.95;100.00
47530;BME280;33272;51.922;7.730;2023-07-13T05:20:22;146748.69;;;17.11;100.00
47530;BME280;33272;51.922;7.730;2023-07-13T05:22:49;146755.06;;;17.14;100.00
47530;BME280;33272;51.922;7.730;2023-07-13T05:25:17;146779.28;;;17.24;100.00
47530;BME280;33272;51.922;7.730;2023-07-13T05:27:44;146806.06;;;17.34;100.00
47530;BME280;33272;51.922;7.730;2023-07-13T05:30:13;146844.31;;;17.50;100.00
47530;BME280;33272;51.922;7.730;2023-07-13T05:32:40;146905.44;;;17.74;100.00
47530;BME280;33272;51.922;7.730;2023-07-13T05:35:08;146925.91;;;17.82;100.00
47530;BME280;33272;51.922;7.730;2023-07-13T05:37:37;146948.88;;;17.92;100.00
47530;BME280;33272;51.922;7.730;2023-07-13T05:40:05;146971.81;;;18.01;100.00
47530;BME280;33272;51.922;7.730;2023-07-13T05:42:33;146989.66;;;18.08;100.00
47530;BME280;33272;51.922;7.730;2023-07-13T05:45:00;146992.19;;;18.09;100.00
47530;BME280;33272;51.922;7.730;2023-07-13T05:47:27;147026.66;;;18.23;100.00
47530;BME280;33272;51.922;7.730;2023-07-13T05:49:54;147025.38;;;18.22;100.00
47530;BME280;33272;51.922;7.730;2023-07-13T05:52:21;147119.75;;;18.60;99.78
47530;BME280;33272;51.922;7.730;2023-07-13T05:54:49;147228.22;;;19.04;97.37
47530;BME280;33272;51.922;7.730;2023-07-13T05:57:16;147258.84;;;19.16;96.02
47530;BME280;33272;51.922;7.730;2023-07-13T05:59:43;147367.34;;;19.59;96.85
47530;BME280;33272;51.922;7.730;2023-07-13T06:02:10;147460.59;;;19.97;94.78
47530;BME280;33272;51.922;7.730;2023-07-13T06:04:37;147529.56;;;20.24;93.35
47530;BME280;33272;51.922;7.730;2023-07-13T06:07:05;147558.91;;;20.36;92.88
47530;BME280;33272;51.922;7.730;2023-07-13T06:09:32;147564.03;;;20.38;90.49
47530;BME280;33272;51.922;7.730;2023-07-13T06:12:00;147662.44;;;20.77;91.31
47530;BME280;33272;51.922;7.730;2023-07-13T06:14:27;147730.16;;;21.04;88.75
47530;BME280;33272;51.922;7.730;2023-07-13T06:16:54;147689.28;;;20.88;86.92
47530;BME280;33272;51.922;7.730;2023-07-13T06:19:21;147689.28;;;20.88;88.08
47530;BME280;33272;51.922;7.730;2023-07-13T06:21:48;147636.88;;;20.67;89.93
47530;BME280;33272;51.922;7.730;2023-07-13T06:24:15;147716.09;;;20.99;88.47
47530;BME280;33272;51.922;7.730;2023-07-13T06:26:42;147698.22;;;20.92;89.21
47530;BME280;33272;51.922;7.730;2023-07-13T06:29:14;147721.22;;;21.01;88.41
47530;BME280;33272;51.922;7.730;2023-07-13T06:31:41;147819.66;;;21.40;85.48
47530;BME280;33272;51.922;7.730;2023-07-13T06:34:08;147824.81;;;21.42;85.88
47530;BME280;33272;51.922;7.730;2023-07-13T06:36:35;147878.50;;;21.64;85.73
47530;BME280;33272;51.922;7.730;2023-07-13T06:39:04;147879.78;;;21.64;84.08
47530;BME280;33272;51.922;7.730;2023-07-13T06:41:32;147886.19;;;21.67;80.87
47530;BME280;33272;51.922;7.730;2023-07-13T06:43:59;147860.63;;;21.57;84.74
47530;BME280;33272;51.922;7.730;2023-07-13T06:46:29;147994.88;;;22.10;83.79
47530;BME280;33272;51.922;7.730;2023-07-13T06:48:56;148010.28;;;22.16;83.05
47530;BME280;33272;51.922;7.730;2023-07-13T06:51:23;148016.63;;;22.19;82.12
47530;BME280;33272;51.922;7.730;2023-07-13T06:53:51;148079.31;;;22.44;81.58
47530;BME280;33272;51.922;7.730;2023-07-13T06:56:18;148121.56;;;22.61;80.57
47530;BME280;33272;51.922;7.730;2023-07-13T06:58:45;148094.66;;;22.50;81.36
47530;BME280;33272;51.922;7.730;2023-07-13T07:01:12;148092.13;;;22.49;79.96
47530;BME280;33272;51.922;7.730;2023-07-13T07:03:41;148135.59;;;22.66;80.10
47530;BME280;33272;51.922;7.730;2023-07-13T07:06:16;148116.41;;;22.59;76.44
47530;BME280;33272;51.922;7.730;2023-07-13T07:08:44;148093.38;;;22.50;79.79
47530;BME280;33272;51.922;7.730;2023-07-13T07:11:14;148095.94;;;22.51;78.99
47530;BME280;33272;51.922;7.730;2023-07-13T07:13:41;148044.78;;;22.30;80.63
47530;BME280;33272;51.922;7.730;2023-07-13T07:16:08;148030.72;;;22.25;80.25
47530;BME280;33272;51.922;7.730;2023-07-13T07:18:35;148014.09;;;22.18;80.02
47530;BME280;33272;51.922;7.730;2023-07-13T07:21:04;147988.47;;;22.08;79.30
47530;BME280;33272;51.922;7.730;2023-07-13T07:23:31;148029.44;;;22.24;80.15
47530;BME280;33272;51.922;7.730;2023-07-13T07:25:58;148024.31;;;22.22;79.48
47530;BME280;33272;51.922;7.730;2023-07-13T07:28:25;147948.84;;;21.92;78.64
47530;BME280;33272;51.922;7.730;2023-07-13T07:30:56;147898.94;;;21.72;80.21
47530;BME280;33272;51.922;7.730;2023-07-13T07:33:24;147772.34;;;21.21;80.21
47530;BME280;33272;51.922;7.730;2023-07-13T07:35:52;147773.66;;;21.22;81.48
47530;BME280;33272;51.922;7.730;2023-07-13T07:38:21;147797.94;;;21.32;81.43
47530;BME280;33272;51.922;7.730;2023-07-13T07:40:48;147800.47;;;21.33;81.51
47530;BME280;33272;51.922;7.730;2023-07-13T07:43:15;147762.13;;;21.17;81.88
47530;BME280;33272;51.922;7.730;2023-07-13T07:45:43;147777.47;;;21.23;81.48
47530;BME280;33272;51.922;7.730;2023-07-13T07:48:11;147762.13;;;21.17;81.80
47530;BME280;33272;51.922;7.730;2023-07-13T07:50:38;147739.09;;;21.08;82.07
47530;BME280;33272;51.922;7.730;2023-07-13T07:53:06;147731.44;;;21.05;82.35
47530;BME280;33272;51.922;7.730;2023-07-13T07:55:37;147806.91;;;21.35;80.37
47530;BME280;33272;51.922;7.730;2023-07-13T07:58:05;147727.63;;;21.03;79.60
47530;BME280;33272;51.922;7.730;2023-07-13T08:00:32;147774.91;;;21.22;80.49
47530;BME280;33272;51.922;7.730;2023-07-13T08:03:01;147800.47;;;21.33;80.35
47530;BME280;33272;51.922;7.730;2023-07-13T08:05:29;147845.28;;;21.50;80.22
47530;BME280;33272;51.922;7.730;2023-07-13T08:07:56;147858.03;;;21.56;80.23
47530;BME280;33272;51.922;7.730;2023-07-13T08:10:23;147883.63;;;21.66;80.12
47530;BME280;33272;51.922;7.730;2023-07-13T08:12:51;147934.75;;;21.86;79.46
47530;BME280;33272;51.922;7.730;2023-07-13T08:15:19;147925.81;;;21.83;79.54
47530;BME280;33272;51.922;7.730;2023-07-13T08:17:47;147980.78;;;22.05;79.10
47530;BME280;33272;51.922;7.730;2023-07-13T08:20:14;147970.59;;;22.01;77.68
47530;BME280;33272;51.922;7.730;2023-07-13T08:22:42;147948.84;;;21.92;79.19
47530;BME280;33272;51.922;7.730;2023-07-13T08:25:09;147964.19;;;21.98;79.38
47530;BME280;33272;51.922;7.730;2023-07-13T08:27:36;148005.09;;;22.14;79.20
47530;BME280;33272;51.922;7.730;2023-07-13T08:30:06;148024.31;;;22.22;78.92
47530;BME280;33272;51.922;7.730;2023-07-13T08:32:33;148047.31;;;22.31;77.78
47530;BME280;33272;51.922;7.730;2023-07-13T08:35:01;147989.75;;;22.08;78.21
47530;BME280;33272;51.922;7.730;2023-07-13T08:37:28;148029.44;;;22.24;78.16
47530;BME280;33272;51.922;7.730;2023-07-13T08:39:54;148029.44;;;22.24;77.77
47530;BME280;33272;51.922;7.730;2023-07-13T08:42:33;147973.13;;;22.02;77.82
47530;BME280;33272;51.922;7.730;2023-07-13T08:45:21;147960.31;;;21.96;76.94
47530;BME280;33272;51.922;7.730;2023-07-13T08:47:53;148015.34;;;22.18;77.87
47530;BME280;33272;51.922;7.730;2023-07-13T08:50:26;148088.25;;;22.48;77.13
47530;BME280;33272;51.922;7.730;2023-07-13T08:52:55;147992.28;;;22.09;76.55
47530;BME280;33272;51.922;7.730;2023-07-13T08:55:28;148044.78;;;22.30;77.76
47530;BME280;33272;51.922;7.730;2023-07-13T08:58:02;148034.56;;;22.26;75.76
47530;BME280;33272;51.922;7.730;2023-07-13T09:00:43;148058.88;;;22.36;75.37
47530;BME280;33272;51.922;7.730;2023-07-13T09:03:20;148056.28;;;22.35;75.56
47530;BME280;33272;51.922;7.730;2023-07-13T09:05:53;148023.03;;;22.21;74.78
47530;BME280;33272;51.922;7.730;2023-07-13T09:08:48;148095.94;;;22.51;74.27
47530;BME280;33272;51.922;7.730;2023-07-13T09:11:45;148124.09;;;22.62;74.99
47530;BME280;33272;51.922;7.730;2023-07-13T09:14:38;148158.63;;;22.76;74.64
47530;BME280;33272;51.922;7.730;2023-07-13T09:17:15;148177.84;;;22.83;74.66
47530;BME280;33272;51.922;7.730;2023-07-13T09:19:44;148220.09;;;23.00;74.91
47530;BME280;33272;51.922;7.730;2023-07-13T09:22:17;148225.25;;;23.02;70.84
47530;BME280;33272;51.922;7.730;2023-07-13T09:24:57;148234.19;;;23.06;73.72
47530;BME280;33272;51.922;7.730;2023-07-13T09:27:31;148245.69;;;23.10;71.65
47530;BME280;33272;51.922;7.730;2023-07-13T09:30:22;148231.66;;;23.05;72.03
47530;BME280;33272;51.922;7.730;2023-07-13T09:32:53;148285.38;;;23.26;72.99
47530;BME280;33272;51.922;7.730;2023-07-13T09:35:25;148285.38;;;23.26;72.90
47530;BME280;33272;51.922;7.730;2023-07-13T09:37:59;148247.00;;;23.11;69.82
47530;BME280;33272;51.922;7.730;2023-07-13T09:40:36;148285.38;;;23.26;72.32
47530;BME280;33272;51.922;7.730;2023-07-13T09:43:08;148311.00;;;23.36;69.62
47530;BME280;33272;51.922;7.730;2023-07-13T09:45:37;148392.97;;;23.69;70.96
47530;BME280;33272;51.922;7.730;2023-07-13T09:48:11;148418.56;;;23.79;66.40
47530;BME280;33272;51.922;7.730;2023-07-13T09:50:39;148448.03;;;23.91;68.63
47530;BME280;33272;51.922;7.730;2023-07-13T09:53:12;148538.97;;;24.27;65.36
47530;BME280;33272;51.922;7.730;2023-07-13T09:55:41;148465.94;;;23.98;64.51
47530;BME280;33272;51.922;7.730;2023-07-13T09:58:12;148459.53;;;23.96;67.19
47530;BME280;33272;51.922;7.730;2023-07-13T10:00:41;148490.28;;;24.08;67.72
47530;BME280;33272;51.922;7.730;2023-07-13T10:03:18;148410.88;;;23.76;66.38
47530;BME280;33272;51.922;7.730;2023-07-13T10:05:48;148417.28;;;23.79;68.07
47530;BME280;33272;51.922;7.730;2023-07-13T10:08:24;148458.25;;;23.95;67.71
47530;BME280;33272;51.922;7.730;2023-07-13T10:10:58;148532.56;;;24.25;66.63
47530;BME280;33272;51.922;7.730;2023-07-13T10:13:33;148573.59;;;24.41;66.63
47530;BME280;33272;51.922;7.730;2023-07-13T10:16:04;148537.66;;;24.27;64.52
47530;BME280;33272;51.922;7.730;2023-07-13T10:18:40;148588.97;;;24.47;64.82
47530;BME280;33272;51.922;7.730;2023-07-13T10:21:16;148490.28;;;24.08;63.24
47530;BME280;33272;51.922;7.730;2023-07-13T10:23:46;148454.44;;;23.94;64.88
47530;BME280;33272;51.922;7.730;2023-07-13T10:26:19;148556.91;;;24.35;64.20
47530;BME280;33272;51.922;7.730;2023-07-13T10:28:53;148567.13;;;24.39;63.29
47530;BME280;33272;51.922;7.730;2023-07-13T10:31:23;148537.66;;;24.27;65.03
47530;BME280;33272;51.922;7.730;2023-07-13T10:33:51;148489.00;;;24.08;64.53
47530;BME280;33272;51.922;7.730;2023-07-13T10:36:31;148467.22;;;23.99;63.86
47530;BME280;33272;51.922;7.730;2023-07-13T10:39:03;148536.38;;;24.26;63.01
47530;BME280;33272;51.922;7.730;2023-07-13T10:41:35;148545.34;;;24.30;62.49
47530;BME280;33272;51.922;7.730;2023-07-13T10:44:05;148564.59;;;24.38;63.89
47530;BME280;33272;51.922;7.730;2023-07-13T10:46:34;148582.56;;;24.45;63.18
47530;BME280;33272;51.922;7.730;2023-07-13T10:49:05;148574.88;;;24.42;61.23
47530;BME280;33272;51.922;7.730;2023-07-13T10:51:35;148642.78;;;24.69;63.16
47530;BME280;33272;51.922;7.730;2023-07-13T10:54:18;148608.16;;;24.55;57.52
47530;BME280;33272;51.922;7.730;2023-07-13T10:56:53;148645.34;;;24.70;61.97
47530;BME280;33272;51.922;7.730;2023-07-13T10:59:33;148650.47;;;24.72;59.95
47530;BME280;33272;51.922;7.730;2023-07-13T11:02:14;148682.50;;;24.85;60.77
47530;BME280;33272;51.922;7.730;2023-07-13T11:04:47;148728.66;;;25.03;60.92
47530;BME280;33272;51.922;7.730;2023-07-13T11:07:21;148754.31;;;25.13;60.52
47530;BME280;33272;51.922;7.730;2023-07-13T11:09:51;148635.09;;;24.66;60.25
47530;BME280;33272;51.922;7.730;2023-07-13T11:12:51;148606.91;;;24.55;58.84
47530;BME280;33272;51.922;7.730;2023-07-13T11:15:42;148562.00;;;24.37;60.83
47530;BME280;33272;51.922;7.730;2023-07-13T11:18:22;148563.31;;;24.37;58.75
47530;BME280;33272;51.922;7.730;2023-07-13T11:20:52;148474.91;;;24.02;60.60
47530;BME280;33272;51.922;7.730;2023-07-13T11:23:42;148481.31;;;24.04;61.90
47530;BME280;33272;51.922;7.730;2023-07-13T11:26:41;148523.59;;;24.21;60.18
47530;BME280;33272;51.922;7.730;2023-07-13T11:29:20;148533.84;;;24.25;60.01
47530;BME280;33272;51.922;7.730;2023-07-13T11:31:53;148612.03;;;24.57;59.86
47530;BME280;33272;51.922;7.730;2023-07-13T11:34:27;148618.44;;;24.59;57.03
47530;BME280;33272;51.922;7.730;2023-07-13T11:36:59;148636.38;;;24.66;57.47
47530;BME280;33272;51.922;7.730;2023-07-13T11:39:30;148619.72;;;24.60;55.70
47530;BME280;33272;51.922;7.730;2023-07-13T11:42:00;148626.16;;;24.62;58.30
47530;BME280;33272;51.922;7.730;2023-07-13T11:44:32;148550.50;;;24.32;57.64
47530;BME280;33272;51.922;7.730;2023-07-13T11:47:08;148527.44;;;24.23;57.33
47530;BME280;33272;51.922;7.730;2023-07-13T11:49:43;148563.31;;;24.37;56.50
47530;BME280;33272;51.922;7.730;2023-07-13T11:52:16;148628.69;;;24.63;56.50
47530;BME280;33272;51.922;7.730;2023-07-13T11:54:51;148651.75;;;24.72;57.99
47530;BME280;33272;51.922;7.730;2023-07-13T11:57:27;148687.59;;;24.87;55.54
47530;BME280;33272;51.922;7.730;2023-07-13T11:59:56;148738.88;;;25.07;57.63
47530;BME280;33272;51.922;7.730;2023-07-13T12:02:29;148703.00;;;24.93;56.80
47530;BME280;33272;51.922;7.730;2023-07-13T12:04:56;148718.38;;;24.99;57.96
47530;BME280;33272;51.922;7.730;2023-07-13T12:07:30;148732.47;;;25.05;55.87
47530;BME280;33272;51.922;7.730;2023-07-13T12:10:01;148772.25;;;25.20;57.66
47530;BME280;33272;51.922;7.730;2023-07-13T12:12:29;148777.41;;;25.23;56.24
47530;BME280;33272;51.922;7.730;2023-07-13T12:14:56;148743.97;;;25.09;55.33
47530;BME280;33272;51.922;7.730;2023-07-13T12:17:24;148812.00;;;25.36;56.57
47530;BME280;33272;51.922;7.730;2023-07-13T12:19:53;148835.06;;;25.46;55.81
47530;BME280;33272;51.922;7.730;2023-07-13T12:22:20;148872.25;;;25.60;55.28
47530;BME280;33272;51.922;7.730;2023-07-13T12:24:51;148920.97;;;25.80;54.19
47530;BME280;33272;51.922;7.730;2023-07-13T12:27:22;148917.09;;;25.78;54.18
47530;BME280;33272;51.922;7.730;2023-07-13T12:29:52;148971.00;;;26.00;53.05
47530;BME280;33272;51.922;7.730;2023-07-13T12:32:20;148826.09;;;25.42;52.21
47530;BME280;33272;51.922;7.730;2023-07-13T12:34:53;148850.44;;;25.52;51.14
47530;BME280;33272;51.922;7.730;2023-07-13T12:37:22;148791.47;;;25.28;53.65
47530;BME280;33272;51.922;7.730;2023-07-13T12:39:51;148750.41;;;25.12;53.01
47530;BME280;33272;51.922;7.730;2023-07-13T12:42:23;148580.00;;;24.44;54.44
47530;BME280;33272;51.922;7.730;2023-07-13T12:44:54;148547.94;;;24.31;55.26
47530;BME280;33272;51.922;7.730;2023-07-13T12:47:23;148553.03;;;24.33;55.46
47530;BME280;33272;51.922;7.730;2023-07-13T12:49:55;148518.47;;;24.19;55.10
47530;BME280;33272;51.922;7.730;2023-07-13T12:52:29;148532.56;;;24.25;55.53
47530;BME280;33272;51.922;7.730;2023-07-13T12:55:04;148535.13;;;24.26;56.75
47530;BME280;33272;51.922;7.730;2023-07-13T12:57:31;148578.75;;;24.43;57.25
47530;BME280;33272;51.922;7.730;2023-07-13T12:59:58;148599.22;;;24.51;57.78
47530;BME280;33272;51.922;7.730;2023-07-13T13:02:30;148627.41;;;24.63;57.76